createdAt,value
2022-09-10T00:03:21.847Z,22.10
2022-09-10T00:08:24.621Z,22.25
2022-09-10T00:13:27.232Z,23.57
2022-09-10T00:18:30.442Z,24.13
2022-09-10T00:23:33.172Z,27.05
2022-09-10T00:28:35.844Z,25.37
2022-09-10T00:33:39.020Z,27.58
2022-09-10T00:38:41.673Z,28.43
2022-09-10T00:43:55.826Z,28.70
2022-09-10T00:49:02.730Z,30.23
2022-09-10T00:54:06.772Z,33.50
2022-09-10T00:59:10.644Z,32.38
2022-09-10T01:04:13.383Z,34.87
2022-09-10T01:09:16.352Z,33.70
2022-09-10T01:14:43.984Z,35.40
2022-09-10T01:20:15.973Z,35.07
2022-09-10T01:25:48.689Z,33.83
2022-09-10T01:30:56.933Z,35.50
2022-09-10T01:36:09.954Z,34.13
2022-09-10T01:41:14.253Z,32.28
2022-09-10T01:46:28.584Z,35.13
2022-09-10T01:51:53.803Z,24.90
2022-09-10T01:57:07.336Z,19.30
2022-09-10T02:02:22.141Z,20.27
2022-09-10T02:07:26.881Z,18.30
2022-09-10T02:12:30.632Z,18.73
2022-09-10T02:17:43.316Z,20.95
2022-09-10T02:22:51.851Z,19.67
2022-09-10T02:27:55.266Z,22.85
2022-09-10T02:32:58.150Z,22.00
2022-09-10T02:38:01.806Z,23.00
2022-09-10T02:43:05.322Z,25.02
2022-09-10T02:48:08.164Z,23.87
2022-09-10T02:53:13.586Z,24.05
2022-09-10T02:58:16.941Z,20.23
2022-09-10T03:03:19.822Z,24.77
2022-09-10T03:08:22.581Z,21.90
2022-09-10T03:13:29.392Z,25.50
2022-09-10T03:18:35.494Z,26.92
2022-09-10T03:23:38.526Z,26.52
2022-09-10T03:28:43.965Z,26.37
2022-09-10T03:33:49.512Z,25.65
2022-09-10T03:38:53.127Z,33.43
2022-09-10T03:43:57.673Z,26.75
2022-09-10T03:49:02.647Z,27.48
2022-09-10T03:54:08.577Z,30.70
2022-09-10T03:59:13.593Z,27.58
2022-09-10T04:04:16.886Z,22.53
2022-09-10T04:09:20.438Z,22.25
2022-09-10T04:14:23.162Z,19.55
2022-09-10T04:19:28.042Z,21.13
2022-09-10T04:24:31.483Z,22.15
2022-09-10T04:29:34.148Z,19.90
2022-09-10T04:34:36.892Z,25.98
2022-09-10T04:39:40.100Z,23.27
2022-09-10T04:44:43.124Z,21.70
2022-09-10T04:49:46.052Z,22.55
2022-09-10T04:54:49.958Z,24.00
2022-09-10T04:59:54.282Z,24.42
2022-09-10T05:04:58.079Z,26.40
2022-09-10T05:10:02.245Z,27.30
2022-09-10T05:15:07.033Z,29.08
2022-09-10T05:20:10.893Z,28.83
2022-09-10T05:25:22.706Z,30.77
2022-09-10T05:30:25.513Z,31.95
2022-09-10T05:35:30.545Z,31.33
2022-09-10T05:40:36.089Z,31.45
2022-09-10T05:45:39.285Z,30.03
2022-09-10T05:50:45.702Z,33.88
2022-09-10T05:55:49.988Z,33.03
2022-09-10T06:00:55.092Z,29.77
2022-09-10T06:05:57.932Z,31.35
2022-09-10T06:11:07.378Z,26.90
2022-09-10T06:16:16.306Z,31.00
2022-09-10T06:21:23.914Z,26.25
2022-09-10T06:26:29.112Z,19.67
2022-09-10T06:31:35.822Z,18.95
2022-09-10T06:36:39.558Z,20.23
2022-09-10T06:41:47.882Z,21.67
2022-09-10T06:48:06.484Z,18.10
2022-09-10T06:52:42.615Z,19.07
2022-09-10T06:57:48.364Z,20.92
2022-09-10T07:02:52.894Z,20.53
2022-09-10T07:07:56.883Z,21.25
2022-09-10T07:13:01.427Z,20.77
2022-09-10T07:18:04.676Z,17.80
2022-09-10T07:23:17.124Z,18.27
2022-09-10T07:28:22.175Z,15.43
2022-09-10T07:33:25.034Z,13.63
2022-09-10T07:38:29.094Z,13.63
2022-09-10T07:43:32.104Z,12.00
2022-09-10T07:48:35.341Z,14.95
2022-09-10T07:53:42.161Z,15.93
2022-09-10T07:58:54.456Z,18.27
2022-09-10T08:03:58.826Z,15.95
2022-09-10T08:09:07.525Z,18.17
2022-09-10T08:14:13.643Z,15.65
2022-09-10T08:19:18.952Z,14.33
2022-09-10T08:24:22.378Z,14.43
2022-09-10T08:29:26.463Z,21.05
2022-09-10T08:34:29.861Z,17.37
2022-09-10T08:39:41.322Z,14.88
2022-09-10T08:45:00.543Z,12.43
2022-09-10T08:50:19.066Z,10.35
2022-09-10T08:55:29.222Z,7.38
2022-09-10T09:00:35.152Z,13.50
2022-09-10T09:05:51.464Z,13.35
2022-09-10T09:11:06.172Z,11.87
2022-09-10T09:16:41.628Z,12.43
2022-09-10T09:21:54.092Z,10.48
2022-09-10T09:27:10.222Z,10.20
2022-09-10T09:32:19.233Z,11.45
2022-09-10T09:37:31.511Z,8.67
2022-09-10T09:42:44.753Z,7.85
2022-09-10T09:47:51.053Z,9.63
2022-09-10T09:52:59.354Z,7.57
2022-09-10T09:58:27.285Z,5.90
2022-09-10T10:03:32.347Z,5.60
2022-09-10T10:08:46.685Z,5.93
2022-09-10T10:13:53.295Z,5.95
2022-09-10T10:18:56.095Z,6.63
2022-09-10T10:23:59.361Z,9.18
2022-09-10T10:29:06.673Z,7.10
2022-09-10T10:34:44.445Z,4.45
2022-09-10T10:39:55.588Z,4.57
2022-09-10T10:45:25.807Z,4.60
2022-09-10T10:51:10.174Z,4.30
2022-09-10T10:56:30.153Z,5.43
2022-09-10T11:01:42.517Z,4.55
2022-09-10T11:06:52.177Z,5.30
2022-09-10T11:12:33.762Z,4.17
2022-09-10T11:17:47.535Z,4.57
2022-09-10T11:23:16.425Z,4.50
2022-09-10T11:28:26.555Z,6.38
2022-09-10T11:33:42.644Z,5.72
2022-09-10T11:39:11.514Z,4.07
2022-09-10T11:45:03.295Z,4.60
2022-09-10T11:50:11.424Z,4.50
2022-09-10T11:55:17.685Z,4.68
2022-09-10T12:00:21.132Z,4.20
2022-09-10T12:05:39.386Z,4.03
2022-09-10T12:11:01.965Z,5.47
2022-09-10T12:16:22.718Z,5.03
2022-09-10T12:21:49.326Z,4.93
2022-09-10T12:26:53.095Z,5.57
2022-09-10T12:32:22.265Z,7.00
2022-09-10T12:37:28.925Z,5.72
2022-09-10T12:42:34.625Z,4.90
2022-09-10T12:47:45.177Z,7.20
2022-09-10T12:52:53.654Z,6.07
2022-09-10T12:58:26.054Z,6.90
2022-09-10T13:03:30.564Z,5.57
2022-09-10T13:08:41.745Z,5.20
2022-09-10T13:14:22.619Z,6.55
2022-09-10T13:19:25.375Z,5.95
2022-09-10T13:24:34.646Z,5.93
2022-09-10T13:30:06.685Z,7.72
2022-09-10T13:35:21.457Z,6.10
2022-09-10T13:41:02.875Z,6.80
2022-09-10T13:46:12.695Z,6.10
2022-09-10T13:51:32.658Z,6.03
2022-09-10T13:56:36.507Z,6.57
2022-09-10T14:01:54.072Z,5.83
2022-09-10T14:07:25.765Z,6.88
2022-09-10T14:12:34.676Z,6.22
2022-09-10T14:17:51.247Z,6.10
2022-09-10T14:23:15.444Z,8.32
2022-09-10T14:28:26.626Z,7.97
2022-09-10T14:33:34.324Z,6.72
2022-09-10T14:38:39.714Z,6.88
2022-09-10T14:43:42.815Z,6.97
2022-09-10T14:49:11.515Z,5.75
2022-09-10T14:54:15.195Z,5.40
2022-09-10T14:59:23.479Z,5.93
2022-09-10T15:04:27.948Z,7.57
2022-09-10T15:09:32.794Z,7.90
2022-09-10T15:14:36.921Z,7.20
2022-09-10T15:19:40.376Z,6.57
2022-09-10T15:25:07.961Z,6.60
2022-09-10T15:30:06.998Z,8.63
2022-09-10T15:35:10.030Z,6.67
2022-09-10T15:40:12.954Z,8.73
2022-09-10T15:45:15.860Z,5.67
2022-09-10T15:50:18.807Z,8.48
2022-09-10T15:55:21.969Z,6.25
2022-09-10T16:00:25.126Z,6.87
2022-09-10T16:05:28.873Z,6.43
2022-09-10T16:10:33.545Z,7.30
2022-09-10T16:15:38.187Z,6.28
2022-09-10T16:20:41.070Z,7.43
2022-09-10T16:25:55.054Z,6.73
2022-09-10T16:30:59.436Z,8.68
2022-09-10T16:36:06.506Z,7.43
2022-09-10T16:41:14.075Z,6.88
2022-09-10T16:46:20.429Z,6.93
2022-09-10T16:51:25.177Z,7.83
2022-09-10T16:56:28.467Z,6.88
2022-09-10T17:01:31.469Z,7.33
2022-09-10T17:06:35.406Z,7.38
2022-09-10T17:11:38.528Z,8.20
2022-09-10T17:16:43.698Z,9.70
2022-09-10T17:21:51.457Z,9.10
2022-09-10T17:26:58.077Z,9.20
2022-09-10T17:32:00.827Z,6.78
2022-09-10T17:37:03.647Z,6.63
2022-09-10T17:42:06.477Z,8.20
2022-09-10T17:47:09.958Z,8.27
2022-09-10T17:52:14.839Z,10.40
2022-09-10T17:57:18.977Z,14.98
2022-09-10T18:02:21.710Z,5.38
2022-09-10T18:07:24.487Z,4.30
2022-09-10T18:12:27.267Z,3.70
2022-09-10T18:17:30.167Z,4.23
2022-09-10T18:22:33.337Z,3.97
2022-09-10T18:27:36.277Z,4.07
2022-09-10T18:32:39.097Z,3.60
2022-09-10T18:37:41.807Z,3.85
2022-09-10T18:42:46.735Z,4.50
2022-09-10T18:47:50.096Z,4.82
2022-09-10T18:52:53.796Z,3.50
2022-09-10T18:57:58.007Z,3.70
2022-09-10T19:03:00.877Z,5.07
2022-09-10T19:08:03.646Z,4.13
2022-09-10T19:13:07.776Z,5.18
2022-09-10T19:18:10.598Z,4.70
2022-09-10T19:23:13.470Z,3.67
2022-09-10T19:28:16.547Z,6.18
2022-09-10T19:33:21.215Z,4.00
2022-09-10T19:38:37.165Z,6.43
2022-09-10T19:43:41.646Z,3.60
2022-09-10T19:48:46.878Z,4.00
2022-09-10T19:53:49.813Z,4.78
2022-09-10T19:58:55.874Z,7.47
2022-09-10T20:04:01.294Z,5.50
2022-09-10T20:09:07.135Z,6.00
2022-09-10T20:14:13.552Z,9.57
2022-09-10T20:19:18.759Z,9.80
2022-09-10T20:24:22.422Z,7.30
2022-09-10T20:29:25.821Z,9.38
2022-09-10T20:34:28.604Z,8.90
2022-09-10T20:39:32.163Z,8.90
2022-09-10T20:44:34.924Z,9.82
2022-09-10T20:49:38.185Z,8.67
2022-09-10T20:54:41.001Z,4.95
2022-09-10T20:59:44.419Z,5.45
2022-09-10T21:04:47.198Z,6.93
2022-09-10T21:09:50.095Z,6.63
2022-09-10T21:14:52.820Z,6.53
2022-09-10T21:19:55.477Z,8.25
2022-09-10T21:24:58.116Z,11.55
2022-09-10T21:30:01.087Z,7.50
2022-09-10T21:35:03.927Z,6.75
2022-09-10T21:40:07.796Z,7.30
2022-09-10T21:45:11.485Z,7.20
2022-09-10T21:50:14.213Z,6.40
2022-09-10T21:55:16.971Z,4.63
2022-09-10T22:00:19.608Z,6.10
2022-09-10T22:05:22.267Z,8.30
2022-09-10T22:10:26.785Z,6.88
2022-09-10T22:15:29.435Z,5.75
2022-09-10T22:20:33.772Z,7.00
2022-09-10T22:25:36.375Z,6.57
2022-09-10T22:30:39.006Z,7.07
2022-09-10T22:35:41.756Z,7.45
2022-09-10T22:40:44.456Z,6.40
2022-09-10T22:45:47.350Z,5.73
2022-09-10T22:50:50.111Z,6.30
2022-09-10T22:55:54.031Z,5.77
2022-09-10T23:00:57.164Z,5.68
2022-09-10T23:06:08.732Z,6.38
2022-09-10T23:11:26.506Z,6.60
2022-09-10T23:16:32.041Z,5.57
2022-09-10T23:21:35.946Z,5.43
2022-09-10T23:26:38.965Z,6.18
2022-09-10T23:31:41.614Z,5.10
2022-09-10T23:36:46.619Z,5.03
2022-09-10T23:41:50.597Z,5.50
2022-09-10T23:46:53.964Z,4.83
2022-09-10T23:51:56.752Z,6.53
2022-09-10T23:57:00.122Z,5.70
